createdAt,value
2023-04-08T00:00:36.002Z,77.80
2023-04-08T00:03:13.142Z,77.80
2023-04-08T00:05:44.306Z,77.80
2023-04-08T00:08:18.690Z,77.80
2023-04-08T00:10:51.464Z,77.70
2023-04-08T00:13:29.301Z,77.50
2023-04-08T00:15:59.789Z,77.60
2023-04-08T00:18:36.743Z,77.60
2023-04-08T00:21:09.790Z,77.70
2023-04-08T00:23:42.766Z,77.70
2023-04-08T00:26:23.943Z,77.80
2023-04-08T00:29:04.672Z,77.80
2023-04-08T00:31:45.162Z,77.80
2023-04-08T00:34:16.449Z,77.60
2023-04-08T00:36:50.516Z,77.60
2023-04-08T00:39:22.574Z,77.40
2023-04-08T00:42:00.212Z,77.60
2023-04-08T00:44:45.690Z,77.60
2023-04-08T00:47:24.166Z,77.40
2023-04-08T00:49:54.621Z,77.60
2023-04-08T00:52:35.714Z,77.60
2023-04-08T00:55:16.868Z,77.40
2023-04-08T00:57:57.674Z,77.50
2023-04-08T01:00:39.382Z,77.50
2023-04-08T01:03:22.925Z,77.60
2023-04-08T01:06:01.806Z,77.70
2023-04-08T01:08:37.513Z,77.70
2023-04-08T01:11:17.896Z,77.80
2023-04-08T01:13:56.340Z,77.80
2023-04-08T01:16:33.903Z,77.60
2023-04-08T01:19:08.420Z,77.60
2023-04-08T01:21:39.844Z,77.60
2023-04-08T01:24:20.288Z,77.60
2023-04-08T01:26:58.464Z,77.60
2023-04-08T01:29:29.048Z,77.60
2023-04-08T01:32:06.247Z,77.60
2023-04-08T01:34:39.321Z,77.60
2023-04-08T01:37:13.774Z,77.70
2023-04-08T01:39:49.408Z,77.60
2023-04-08T01:42:26.572Z,77.60
2023-04-08T01:44:59.471Z,77.60
2023-04-08T01:47:33.719Z,77.60
2023-04-08T01:50:09.265Z,77.40
2023-04-08T01:52:49.335Z,77.60
2023-04-08T01:55:29.228Z,77.60
2023-04-08T01:58:08.108Z,77.60
2023-04-08T02:00:48.020Z,77.60
2023-04-08T02:03:28.344Z,77.60
2023-04-08T02:06:02.517Z,77.40
2023-04-08T02:08:37.346Z,77.50
2023-04-08T02:11:14.266Z,77.50
2023-04-08T02:13:50.384Z,77.50
2023-04-08T02:16:32.142Z,77.50
2023-04-08T02:19:16.233Z,77.50
2023-04-08T02:21:54.260Z,77.50
2023-04-08T02:24:34.299Z,77.40
2023-04-08T02:27:08.942Z,77.30
2023-04-08T02:29:47.644Z,77.30
2023-04-08T02:32:23.149Z,77.30
2023-04-08T02:35:00.348Z,77.30
2023-04-08T02:37:32.696Z,77.30
2023-04-08T02:40:01.901Z,77.30
2023-04-08T02:42:33.188Z,77.30
2023-04-08T02:45:16.174Z,77.30
2023-04-08T02:47:57.779Z,77.30
2023-04-08T02:50:32.131Z,77.30
2023-04-08T02:53:09.123Z,77.40
2023-04-08T02:55:41.237Z,77.40
2023-04-08T02:58:16.823Z,77.40
2023-04-08T03:00:53.997Z,77.40
2023-04-08T03:03:32.895Z,77.40
2023-04-08T03:06:09.001Z,77.40
2023-04-08T03:08:41.530Z,77.30
2023-04-08T03:11:15.464Z,77.30
2023-04-08T03:13:50.167Z,77.40
2023-04-08T03:16:33.002Z,77.40
2023-04-08T03:19:07.680Z,77.40
2023-04-08T03:21:42.274Z,77.40
2023-04-08T03:24:13.912Z,77.40
2023-04-08T03:26:47.822Z,77.50
2023-04-08T03:29:35.041Z,77.50
2023-04-08T03:32:22.862Z,77.30
2023-04-08T03:34:56.231Z,77.20
2023-04-08T03:37:36.511Z,77.30
2023-04-08T03:40:07.754Z,77.40
2023-04-08T03:42:44.154Z,77.50
2023-04-08T03:45:19.969Z,77.50
2023-04-08T03:48:03.198Z,77.50
2023-04-08T03:50:36.059Z,77.50
2023-04-08T03:53:06.741Z,77.50
2023-04-08T03:55:50.833Z,77.40
2023-04-08T03:58:28.810Z,77.40
2023-04-08T04:01:02.841Z,77.40
2023-04-08T04:03:49.939Z,77.40
2023-04-08T04:06:23.268Z,77.40
2023-04-08T04:08:58.826Z,77.30
2023-04-08T04:11:33.161Z,77.30
2023-04-08T04:14:13.318Z,77.30
2023-04-08T04:16:52.924Z,77.40
2023-04-08T04:19:30.452Z,77.40
2023-04-08T04:22:02.051Z,77.30
2023-04-08T04:24:33.197Z,77.20
2023-04-08T04:27:04.062Z,77.30
2023-04-08T04:29:38.450Z,77.30
2023-04-08T04:32:07.521Z,77.30
2023-04-08T04:34:42.437Z,77.40
2023-04-08T04:37:16.784Z,77.40
2023-04-08T04:39:53.752Z,77.40
2023-04-08T04:42:26.339Z,77.40
2023-04-08T04:45:12.931Z,77.40
2023-04-08T04:47:49.557Z,77.40
2023-04-08T04:50:32.335Z,77.30
2023-04-08T04:53:06.069Z,77.20
2023-04-08T04:55:39.122Z,77.20
2023-04-08T04:58:24.756Z,77.30
2023-04-08T05:01:04.618Z,77.30
2023-04-08T05:03:35.312Z,77.30
2023-04-08T05:06:13.301Z,77.40
2023-04-08T05:08:53.025Z,77.50
2023-04-08T05:11:28.207Z,77.50
2023-04-08T05:14:01.566Z,77.50
2023-04-08T05:16:33.535Z,77.40
2023-04-08T05:19:12.685Z,77.40
2023-04-08T05:21:54.810Z,77.50
2023-04-08T05:24:29.577Z,77.50
2023-04-08T05:27:02.475Z,77.40
2023-04-08T05:29:42.329Z,77.50
2023-04-08T05:32:17.411Z,77.50
2023-04-08T05:34:53.714Z,77.60
2023-04-08T05:37:35.901Z,77.50
2023-04-08T05:40:07.274Z,77.60
2023-04-08T05:42:47.619Z,77.60
2023-04-08T05:45:20.994Z,77.60
2023-04-08T05:47:52.252Z,77.60
2023-04-08T05:50:26.786Z,77.60
2023-04-08T05:53:02.818Z,77.60
2023-04-08T05:55:41.866Z,77.60
2023-04-08T05:58:10.528Z,77.60
2023-04-08T06:00:43.295Z,77.60
2023-04-08T06:03:20.702Z,77.60
2023-04-08T06:05:55.387Z,77.70
2023-04-08T06:08:29.835Z,77.70
2023-04-08T06:11:06.858Z,77.70
2023-04-08T06:13:41.921Z,77.70
2023-04-08T06:16:21.236Z,77.80
2023-04-08T06:18:59.130Z,77.80
2023-04-08T06:21:44.137Z,77.80
2023-04-08T06:24:31.241Z,77.80
2023-04-08T06:27:04.062Z,77.90
2023-04-08T06:29:40.602Z,77.80
2023-04-08T06:32:22.820Z,77.90
2023-04-08T06:35:03.328Z,77.90
2023-04-08T06:37:41.030Z,77.80
2023-04-08T06:40:14.033Z,77.90
2023-04-08T06:42:45.092Z,78.00
2023-04-08T06:45:26.303Z,78.00
2023-04-08T06:47:59.947Z,78.00
2023-04-08T06:50:39.722Z,78.00
2023-04-08T06:53:21.696Z,78.00
2023-04-08T06:56:08.799Z,78.00
2023-04-08T06:58:44.975Z,78.00
2023-04-08T07:01:16.389Z,78.00
2023-04-08T07:03:50.538Z,78.00
2023-04-08T07:06:24.577Z,78.00
2023-04-08T07:09:01.855Z,78.00
2023-04-08T07:11:33.841Z,78.00
2023-04-08T07:14:05.365Z,78.00
2023-04-08T07:16:36.355Z,78.10
2023-04-08T07:19:05.658Z,78.10
2023-04-08T07:21:39.095Z,78.10
2023-04-08T07:24:14.355Z,78.10
2023-04-08T07:26:59.214Z,78.00
2023-04-08T07:29:40.623Z,78.10
2023-04-08T07:32:17.392Z,78.00
2023-04-08T07:34:55.577Z,77.80
2023-04-08T07:37:27.838Z,77.70
2023-04-08T07:40:02.669Z,77.80
2023-04-08T07:42:50.131Z,77.80
2023-04-08T07:45:21.276Z,77.70
2023-04-08T07:47:58.904Z,77.80
2023-04-08T07:50:36.537Z,77.80
2023-04-08T07:53:26.451Z,77.70
2023-04-08T07:56:03.020Z,77.60
2023-04-08T07:58:48.748Z,77.60
2023-04-08T08:01:29.132Z,77.70
2023-04-08T08:04:06.062Z,77.80
2023-04-08T08:06:46.778Z,77.80
2023-04-08T08:09:27.366Z,77.80
2023-04-08T08:11:58.197Z,77.80
2023-04-08T08:14:38.241Z,77.70
2023-04-08T08:17:11.393Z,77.70
2023-04-08T08:19:48.846Z,77.60
2023-04-08T08:22:22.582Z,77.50
2023-04-08T08:25:02.175Z,77.40
2023-04-08T08:27:31.109Z,77.30
2023-04-08T08:30:24.666Z,77.20
2023-04-08T08:32:58.921Z,77.20
2023-04-08T08:35:34.067Z,77.20
2023-04-08T08:38:10.335Z,77.10
2023-04-08T08:40:45.569Z,77.00
2023-04-08T08:43:16.026Z,77.20
2023-04-08T08:45:56.553Z,77.20
2023-04-08T08:48:29.440Z,77.10
2023-04-08T08:51:09.691Z,77.00
2023-04-08T08:53:38.612Z,77.00
2023-04-08T08:56:18.401Z,77.00
2023-04-08T08:58:56.621Z,76.90
2023-04-08T09:01:51.142Z,76.80
2023-04-08T09:04:27.580Z,76.50
2023-04-08T09:07:20.697Z,76.50
2023-04-08T09:09:54.820Z,76.40
2023-04-08T09:12:26.804Z,76.50
2023-04-08T09:15:06.622Z,76.20
2023-04-08T09:17:42.515Z,76.20
2023-04-08T09:20:16.458Z,76.10
2023-04-08T09:23:09.184Z,75.90
2023-04-08T09:25:41.450Z,75.90
2023-04-08T09:28:24.319Z,75.80
2023-04-08T09:30:58.586Z,75.70
2023-04-08T09:33:38.187Z,75.70
2023-04-08T09:36:18.626Z,75.70
2023-04-08T09:38:53.000Z,75.60
2023-04-08T09:41:30.054Z,75.50
2023-04-08T09:44:01.855Z,75.30
2023-04-08T09:46:44.013Z,75.10
2023-04-08T09:49:31.518Z,75.20
2023-04-08T09:52:12.543Z,74.80
2023-04-08T09:54:55.253Z,74.70
2023-04-08T09:57:45.403Z,74.30
2023-04-08T10:00:26.445Z,74.30
2023-04-08T10:03:03.172Z,73.80
2023-04-08T10:05:42.133Z,74.20
2023-04-08T10:08:17.826Z,73.90
2023-04-08T10:10:48.591Z,74.10
2023-04-08T10:13:23.033Z,73.90
2023-04-08T10:15:57.581Z,73.70
2023-04-08T10:18:37.304Z,73.60
2023-04-08T10:21:35.767Z,73.30
2023-04-08T10:24:10.111Z,73.10
2023-04-08T10:26:47.279Z,73.20
2023-04-08T10:29:39.572Z,73.00
2023-04-08T10:32:18.889Z,73.10
2023-04-08T10:34:57.113Z,73.10
2023-04-08T10:37:31.161Z,73.10
2023-04-08T10:40:10.674Z,73.00
2023-04-08T10:42:44.429Z,73.00
2023-04-08T10:45:27.831Z,72.90
2023-04-08T10:47:56.190Z,73.00
2023-04-08T10:50:25.304Z,72.90
2023-04-08T10:53:02.212Z,72.80
2023-04-08T10:55:42.646Z,72.70
2023-04-08T10:58:19.798Z,72.80
2023-04-08T11:01:02.742Z,72.80
2023-04-08T11:03:37.923Z,72.60
2023-04-08T11:06:12.207Z,72.40
2023-04-08T11:08:51.406Z,72.40
2023-04-08T11:11:38.330Z,72.30
2023-04-08T11:14:11.309Z,72.20
2023-04-08T11:16:42.643Z,72.20
2023-04-08T11:19:20.137Z,72.20
2023-04-08T11:21:54.361Z,72.30
2023-04-08T11:24:27.343Z,72.30
2023-04-08T11:27:01.556Z,72.30
2023-04-08T11:29:41.982Z,72.20
2023-04-08T11:32:15.177Z,72.10
2023-04-08T11:34:55.006Z,72.10
2023-04-08T11:37:37.884Z,72.20
2023-04-08T11:40:15.417Z,71.90
2023-04-08T11:42:47.050Z,72.00
2023-04-08T11:45:25.850Z,72.00
2023-04-08T11:48:06.084Z,71.90
2023-04-08T11:50:36.553Z,71.80
2023-04-08T11:53:22.297Z,71.70
2023-04-08T11:56:00.049Z,71.80
2023-04-08T11:58:33.662Z,71.80
2023-04-08T12:01:07.658Z,71.80
2023-04-08T12:03:42.677Z,71.90
2023-04-08T12:06:28.948Z,71.80
2023-04-08T12:09:00.121Z,71.70
2023-04-08T12:11:41.329Z,71.60
2023-04-08T12:14:18.259Z,71.60
2023-04-08T12:16:57.604Z,71.70
2023-04-08T12:19:36.481Z,71.70
2023-04-08T12:22:12.599Z,71.70
2023-04-08T12:24:46.656Z,71.70
2023-04-08T12:27:24.588Z,71.70
2023-04-08T12:29:59.546Z,71.70
2023-04-08T12:32:32.814Z,71.60
2023-04-08T12:35:13.918Z,71.70
2023-04-08T12:37:50.714Z,71.60
2023-04-08T12:40:30.112Z,71.60
2023-04-08T12:43:10.699Z,71.50
2023-04-08T12:45:48.695Z,71.60
2023-04-08T12:48:22.997Z,71.70
2023-04-08T12:50:55.234Z,71.70
2023-04-08T12:53:39.165Z,71.60
2023-04-08T12:56:10.594Z,71.60
2023-04-08T12:58:46.387Z,71.60
2023-04-08T13:01:20.519Z,71.60
2023-04-08T13:04:00.362Z,71.70
2023-04-08T13:06:35.700Z,71.70
2023-04-08T13:09:08.547Z,71.90
2023-04-08T13:11:39.761Z,72.00
2023-04-08T13:14:17.761Z,72.00
2023-04-08T13:16:49.481Z,72.10
2023-04-08T13:19:24.122Z,72.00
2023-04-08T13:22:05.144Z,71.90
2023-04-08T13:24:42.061Z,71.80
2023-04-08T13:27:14.486Z,71.90
2023-04-08T13:29:52.265Z,72.00
2023-04-08T13:32:32.056Z,71.90
2023-04-08T13:35:07.751Z,71.90
2023-04-08T13:37:38.304Z,71.90
2023-04-08T13:40:15.244Z,72.00
2023-04-08T13:42:48.253Z,72.10
2023-04-08T13:45:27.187Z,72.00
2023-04-08T13:48:00.310Z,72.00
2023-04-08T13:50:34.396Z,71.90
2023-04-08T13:53:12.785Z,72.00
2023-04-08T13:55:43.142Z,72.00
2023-04-08T13:58:24.596Z,72.00
2023-04-08T14:01:03.021Z,72.00
2023-04-08T14:03:43.544Z,71.80
2023-04-08T14:06:18.254Z,71.80
2023-04-08T14:08:58.218Z,71.70
2023-04-08T14:11:29.844Z,71.70
2023-04-08T14:14:05.946Z,71.60
2023-04-08T14:16:44.027Z,71.60
2023-04-08T14:19:15.458Z,71.50
2023-04-08T14:21:47.677Z,71.50
2023-04-08T14:24:19.639Z,71.50
2023-04-08T14:26:55.848Z,71.50
2023-04-08T14:29:38.299Z,71.50
2023-04-08T14:32:14.756Z,71.60
2023-04-08T14:34:49.317Z,71.60
2023-04-08T14:37:28.668Z,71.50
2023-04-08T14:40:05.626Z,71.60
2023-04-08T14:42:36.668Z,71.60
2023-04-08T14:45:08.908Z,71.40
2023-04-08T14:47:44.426Z,71.40
2023-04-08T14:50:17.861Z,71.30
2023-04-08T14:52:52.134Z,71.20
2023-04-08T14:55:31.297Z,71.20
2023-04-08T14:58:06.330Z,71.20
2023-04-08T15:00:37.675Z,71.30
2023-04-08T15:03:15.918Z,71.30
2023-04-08T15:05:57.021Z,71.20
2023-04-08T15:08:32.580Z,71.20
2023-04-08T15:11:06.528Z,71.20
2023-04-08T15:13:46.154Z,71.10
2023-04-08T15:16:16.960Z,71.00
2023-04-08T15:18:58.030Z,71.10
2023-04-08T15:21:29.999Z,71.10
2023-04-08T15:24:00.675Z,71.00
2023-04-08T15:26:36.529Z,71.10
2023-04-08T15:29:14.010Z,71.10
2023-04-08T15:31:47.473Z,71.10
2023-04-08T15:34:24.590Z,71.10
2023-04-08T15:37:04.509Z,71.20
2023-04-08T15:39:36.580Z,71.30
2023-04-08T15:42:13.554Z,71.30
2023-04-08T15:44:58.987Z,71.20
2023-04-08T15:47:34.527Z,71.30
2023-04-08T15:50:19.657Z,71.30
2023-04-08T15:52:51.404Z,71.30
2023-04-08T15:55:30.488Z,71.30
2023-04-08T15:58:04.085Z,71.40
2023-04-08T16:00:36.324Z,71.30
2023-04-08T16:03:17.194Z,71.40
2023-04-08T16:05:50.128Z,71.40
2023-04-08T16:08:26.191Z,71.20
2023-04-08T16:11:07.173Z,71.10
2023-04-08T16:13:49.435Z,71.20
2023-04-08T16:16:19.645Z,71.10
2023-04-08T16:18:56.065Z,71.10
2023-04-08T16:21:38.904Z,71.10
2023-04-08T16:24:11.051Z,71.10
2023-04-08T16:26:44.516Z,71.20
2023-04-08T16:29:21.521Z,71.20
2023-04-08T16:31:55.326Z,71.20
2023-04-08T16:34:27.857Z,71.20
2023-04-08T16:36:59.963Z,71.20
2023-04-08T16:39:36.422Z,71.20
2023-04-08T16:42:11.407Z,71.10
2023-04-08T16:44:43.356Z,70.70
2023-04-08T16:47:17.252Z,70.40
2023-04-08T16:49:48.479Z,70.30
2023-04-08T16:52:24.785Z,70.10
2023-04-08T16:55:02.286Z,69.90
2023-04-08T16:57:35.287Z,69.90
2023-04-08T17:00:08.019Z,69.90
2023-04-08T17:02:41.083Z,69.80
2023-04-08T17:05:18.054Z,69.80
2023-04-08T17:07:56.196Z,69.70
2023-04-08T17:10:30.083Z,69.70
2023-04-08T17:12:59.949Z,69.70
2023-04-08T17:15:34.817Z,69.70
2023-04-08T17:18:07.908Z,69.70
2023-04-08T17:20:37.697Z,69.90
2023-04-08T17:23:22.508Z,69.80
2023-04-08T17:26:01.998Z,69.80
2023-04-08T17:28:40.867Z,69.80
2023-04-08T17:31:18.893Z,69.80
2023-04-08T17:33:57.708Z,69.70
2023-04-08T17:36:30.727Z,69.80
2023-04-08T17:39:05.664Z,69.80
2023-04-08T17:41:41.303Z,69.80
2023-04-08T17:44:19.394Z,69.80
2023-04-08T17:46:53.806Z,69.80
2023-04-08T17:49:29.594Z,69.70
2023-04-08T17:52:09.019Z,69.70
2023-04-08T17:54:44.531Z,69.70
2023-04-08T17:57:22.672Z,69.70
2023-04-08T17:59:52.867Z,69.60
2023-04-08T18:02:30.084Z,69.60
2023-04-08T18:05:04.408Z,69.50
2023-04-08T18:07:46.222Z,69.50
2023-04-08T18:10:33.631Z,69.50
2023-04-08T18:13:11.214Z,69.60
2023-04-08T18:15:46.810Z,69.60
2023-04-08T18:18:21.804Z,69.50
2023-04-08T18:21:07.977Z,69.50
2023-04-08T18:23:40.115Z,69.50
2023-04-08T18:26:18.903Z,69.60
2023-04-08T18:28:54.118Z,69.60
2023-04-08T18:31:29.014Z,69.60
2023-04-08T18:33:59.645Z,69.60
2023-04-08T18:36:39.775Z,69.70
2023-04-08T18:39:12.861Z,69.60
2023-04-08T18:41:59.293Z,69.60
2023-04-08T18:44:38.555Z,69.50
2023-04-08T18:47:15.276Z,69.60
2023-04-08T18:49:44.129Z,69.60
2023-04-08T18:52:24.969Z,69.50
2023-04-08T18:55:10.830Z,69.60
2023-04-08T18:57:53.774Z,69.50
2023-04-08T19:00:28.958Z,69.50
2023-04-08T19:09:39.615Z,69.30
2023-04-08T19:12:21.348Z,69.20
2023-04-08T19:15:22.160Z,69.20
2023-04-08T19:18:01.680Z,69.20
2023-04-08T19:20:32.767Z,69.20
2023-04-08T19:23:22.929Z,69.20
2023-04-08T19:26:00.598Z,69.20
2023-04-08T19:28:35.492Z,69.20
2023-04-08T19:31:42.732Z,69.20
2023-04-08T19:34:16.502Z,69.20
2023-04-08T19:36:47.844Z,69.20
2023-04-08T19:39:26.659Z,69.20
2023-04-08T19:44:52.966Z,69.10
2023-04-08T19:47:36.674Z,69.20
2023-04-08T19:50:16.882Z,69.20
2023-04-08T19:52:55.616Z,69.20
2023-04-08T19:55:28.699Z,69.20
2023-04-08T19:58:20.709Z,69.20
2023-04-08T20:04:07.014Z,69.30
2023-04-08T20:06:43.606Z,69.40
2023-04-08T20:09:16.623Z,69.40
2023-04-08T20:11:52.659Z,69.40
2023-04-08T20:14:22.392Z,69.40
2023-04-08T20:16:56.575Z,69.40
2023-04-08T20:19:33.220Z,69.40
2023-04-08T20:22:03.847Z,69.50
2023-04-08T20:24:42.100Z,69.50
2023-04-08T20:27:14.784Z,69.50
2023-04-08T20:29:46.912Z,69.50
2023-04-08T20:32:17.404Z,69.50
2023-04-08T20:35:06.074Z,69.40
2023-04-08T20:37:50.640Z,69.40
2023-04-08T20:40:37.002Z,69.40
2023-04-08T20:43:13.858Z,69.50
2023-04-08T20:45:48.220Z,69.60
2023-04-08T20:48:25.180Z,69.70
2023-04-08T20:51:15.990Z,69.60
2023-04-08T20:53:46.439Z,69.70
2023-04-08T20:56:22.278Z,69.80
2023-04-08T20:58:53.229Z,69.90
2023-04-08T21:01:29.073Z,69.80
2023-04-08T21:04:08.527Z,69.80
2023-04-08T21:06:44.511Z,69.90
2023-04-08T21:09:15.382Z,69.90
2023-04-08T21:11:52.072Z,70.00
2023-04-08T21:14:33.799Z,70.00
2023-04-08T21:17:13.033Z,70.10
2023-04-08T21:19:44.951Z,70.20
2023-04-08T21:22:22.400Z,70.20
2023-04-08T21:24:56.137Z,70.20
2023-04-08T21:27:27.012Z,70.20
2023-04-08T21:29:58.063Z,70.20
2023-04-08T21:32:38.344Z,70.20
2023-04-08T21:35:11.791Z,70.30
2023-04-08T21:37:49.750Z,70.50
2023-04-08T21:40:23.700Z,70.60
2023-04-08T21:43:04.696Z,70.70
2023-04-08T21:45:35.413Z,70.70
2023-04-08T21:48:14.946Z,70.70
2023-04-08T21:50:48.044Z,70.80
2023-04-08T21:53:34.949Z,70.90
2023-04-08T21:56:11.019Z,71.00
2023-04-08T21:58:42.217Z,71.00
2023-04-08T22:01:12.594Z,71.00
2023-04-08T22:03:58.065Z,70.90
2023-04-08T22:06:38.175Z,70.90
2023-04-08T22:09:15.744Z,71.00
2023-04-08T22:11:51.985Z,71.10
2023-04-08T22:14:30.718Z,71.00
2023-04-08T22:17:05.567Z,71.10
2023-04-08T22:19:46.874Z,71.20
2023-04-08T22:22:19.279Z,71.50
2023-04-08T22:25:03.808Z,71.60
2023-04-08T22:27:40.637Z,71.60
2023-04-08T22:30:24.238Z,71.60
2023-04-08T22:33:06.505Z,71.70
2023-04-08T22:35:44.971Z,71.70
2023-04-08T22:38:15.613Z,71.70
2023-04-08T22:40:55.004Z,71.60
2023-04-08T22:43:27.161Z,71.80
2023-04-08T22:46:03.790Z,72.00
2023-04-08T22:48:36.790Z,71.90
2023-04-08T22:51:10.620Z,72.00
2023-04-08T22:53:50.832Z,72.00
2023-04-08T22:56:29.213Z,72.10
2023-04-08T22:59:03.275Z,72.20
2023-04-08T23:01:34.546Z,72.30
2023-04-08T23:04:10.194Z,72.50
2023-04-08T23:06:44.083Z,72.50
2023-04-08T23:09:19.719Z,72.60
2023-04-08T23:11:57.117Z,72.70
2023-04-08T23:14:30.834Z,72.80
2023-04-08T23:17:10.809Z,72.80
2023-04-08T23:19:46.268Z,72.90
2023-04-08T23:22:24.148Z,73.00
2023-04-08T23:25:01.670Z,73.00
2023-04-08T23:27:32.391Z,73.10
2023-04-08T23:30:05.457Z,73.10
2023-04-08T23:32:42.812Z,73.20
2023-04-08T23:35:19.212Z,73.30
2023-04-08T23:37:59.164Z,73.20
2023-04-08T23:40:34.493Z,73.20
2023-04-08T23:43:05.327Z,73.30
2023-04-08T23:45:42.323Z,73.30
2023-04-08T23:48:16.015Z,73.30
2023-04-08T23:50:44.511Z,73.40
2023-04-08T23:53:19.178Z,73.40
2023-04-08T23:55:52.470Z,73.50
2023-04-08T23:58:32.052Z,73.70
